Time;durP1;ratioP1;P1;durP2;ratioP2;P2;SDS_P1;SDS_P2;PMS_P1;PMS_P2;Temp;Humidity;BMP_temperature;BMP_pressure;BME280_temperature;BME280_humidity;BME280_pressure;Samples;Min_cycle;Max_cycle;Signal;HPM_P1;HPM_P2
2023/03/17 00:01:02;;;;;;;;;12.67;12.67;;;;;16.48;67.82;100250.88;5081342;27;45437;-76
2023/03/17 00:03:28;;;;;;;;;13.67;13.33;;;;;16.43;68.57;100242.72;5080974;27;45345;-75
2023/03/17 00:05:56;;;;;;;;;12.33;12.33;;;;;16.43;69.25;100250.75;5081034;27;45386;-76
2023/03/17 00:08:24;;;;;;;;;18.33;18.33;;;;;16.42;68.04;100263.34;5081133;27;45226;-76
2023/03/17 00:10:50;;;;;;;;;15.00;15.00;;;;;16.44;68.44;100266.63;5081089;27;45326;-75
2023/03/17 00:13:16;;;;;;;;;18.33;18.33;;;;;16.45;68.14;100265.56;5080683;27;45306;-75
2023/03/17 00:15:42;;;;;;;;;16.33;16.33;;;;;16.44;68.16;100265.81;5080995;27;45418;-76
2023/03/17 00:18:15;;;;;;;;;19.33;18.67;;;;;16.35;68.76;100276.00;5080556;27;45546;-76
2023/03/17 00:20:41;;;;;;;;;19.33;19.33;;;;;16.29;68.03;100272.38;5080905;28;45389;-76
2023/03/17 00:23:14;;;;;;;;;27.00;23.67;;;;;16.25;69.05;100269.31;5080640;27;45403;-76
2023/03/17 00:25:42;;;;;;;;;25.67;23.67;;;;;16.20;69.50;100266.50;5080612;28;46116;-75
2023/03/17 00:28:17;;;;;;;;;29.00;27.00;;;;;16.23;69.91;100271.41;5080392;27;45346;-76
2023/03/17 00:30:43;;;;;;;;;24.00;23.00;;;;;16.16;69.18;100273.31;5076056;28;45368;-76
2023/03/17 00:33:10;;;;;;;;;19.67;18.00;;;;;16.14;69.29;100276.22;5078453;28;45357;-76
2023/03/17 00:35:35;;;;;;;;;23.00;23.00;;;;;16.07;69.67;100277.34;5080428;27;46230;-76
2023/03/17 00:38:01;;;;;;;;;21.33;21.33;;;;;16.05;70.09;100271.38;5080286;28;45272;-75
2023/03/17 00:40:29;;;;;;;;;19.00;18.00;;;;;15.99;69.53;100275.78;5080798;28;45571;-75
2023/03/17 00:42:56;;;;;;;;;20.33;19.33;;;;;15.98;69.60;100284.88;5080013;27;45393;-76
2023/03/17 00:45:22;;;;;;;;;3.67;3.67;;;;;15.96;69.19;100281.56;5079078;28;48422;-76
2023/03/17 00:47:50;;;;;;;;;17.00;16.67;;;;;15.88;70.06;100277.28;5078756;28;45375;-76
2023/03/17 00:50:23;;;;;;;;;16.00;14.33;;;;;15.87;70.35;100283.69;5079023;28;45415;-76
2023/03/17 00:52:51;;;;;;;;;15.67;15.67;;;;;15.84;70.59;100289.50;5080327;27;45309;-75
2023/03/17 00:55:18;;;;;;;;;16.00;13.67;;;;;15.74;70.48;100273.91;5080342;27;45307;-75
2023/03/17 00:57:45;;;;;;;;;20.33;17.67;;;;;15.77;71.03;100290.38;5080141;27;45404;-76
2023/03/17 01:00:23;;;;;;;;;12.33;12.00;;;;;15.84;71.03;100284.13;5066900;27;45336;-75
2023/03/17 01:02:52;;;;;;;;;13.00;12.33;;;;;15.71;70.60;100267.13;5079254;27;45384;-75
2023/03/17 01:05:18;;;;;;;;;13.00;12.00;;;;;15.72;70.71;100278.69;5078547;27;47358;-75
2023/03/17 01:07:47;;;;;;;;;15.00;13.67;;;;;15.71;71.36;100283.22;5075647;28;45766;-75
2023/03/17 01:10:16;;;;;;;;;11.67;11.00;;;;;15.73;70.74;100293.72;5076526;28;45488;-75
2023/03/17 01:12:44;;;;;;;;;13.33;12.33;;;;;15.70;71.80;100284.25;5080160;28;45262;-76
2023/03/17 01:15:11;;;;;;;;;7.33;6.33;;;;;15.76;69.97;100278.03;5078384;27;45718;-75
2023/03/17 01:17:38;;;;;;;;;13.00;13.00;;;;;15.60;70.62;100270.53;5079931;28;45437;-75
2023/03/17 01:20:05;;;;;;;;;13.00;12.00;;;;;15.57;71.72;100279.03;5080101;27;45459;-75
2023/03/17 01:22:30;;;;;;;;;12.67;12.67;;;;;15.44;71.95;100270.03;5078260;28;47201;-75
2023/03/17 01:24:56;;;;;;;;;16.67;16.67;;;;;15.46;72.06;100267.16;5078279;28;48513;-76
2023/03/17 01:27:21;;;;;;;;;16.67;14.00;;;;;15.44;72.47;100283.44;5079884;28;45262;-75
2023/03/17 01:29:46;;;;;;;;;14.33;14.33;;;;;15.39;72.55;100286.75;5079451;28;45335;-76
2023/03/17 01:32:12;;;;;;;;;13.00;11.33;;;;;15.38;73.62;100276.25;5078141;28;46235;-76
2023/03/17 01:34:37;;;;;;;;;16.00;15.67;;;;;15.43;73.43;100283.66;5079610;27;46257;-75
2023/03/17 01:37:03;;;;;;;;;15.00;15.00;;;;;15.46;74.17;100296.59;5079551;27;45278;-75
2023/03/17 01:39:28;;;;;;;;;17.33;15.67;;;;;15.45;74.10;100287.78;5079641;27;45386;-75
2023/03/17 01:42:00;;;;;;;;;14.33;14.33;;;;;15.49;74.02;100277.44;5078171;28;46908;-75
2023/03/17 01:44:26;;;;;;;;;14.33;14.00;;;;;15.37;74.13;100267.44;5079102;27;46456;-76
2023/03/17 01:46:52;;;;;;;;;15.67;15.33;;;;;15.44;74.30;100269.25;5079469;27;45177;-75
2023/03/17 01:49:32;;;;;;;;;11.00;11.00;;;;;15.47;74.23;100274.97;5079537;27;45271;-75
2023/03/17 01:52:15;;;;;;;;;17.67;13.67;;;;;15.48;74.18;100281.94;5079423;27;45299;-75
2023/03/17 01:54:49;;;;;;;;;13.67;13.33;;;;;15.46;74.19;100269.81;5079173;27;46407;-75
2023/03/17 01:57:22;;;;;;;;;15.33;15.00;;;;;15.31;74.27;100264.78;5077928;28;45338;-75
2023/03/17 01:59:51;;;;;;;;;11.67;11.67;;;;;15.28;74.88;100260.69;5079350;27;45482;-76
2023/03/17 02:02:21;;;;;;;;;14.33;11.33;;;;;15.28;74.34;100258.03;5079079;28;45441;-75
2023/03/17 02:04:50;;;;;;;;;13.67;12.33;;;;;15.29;74.71;100258.84;5077868;28;47175;-75
2023/03/17 02:07:17;;;;;;;;;13.00;11.67;;;;;15.22;75.04;100254.38;5077546;27;45460;-76
2023/03/17 02:09:43;;;;;;;;;16.00;14.67;;;;;15.18;75.10;100252.34;5079451;27;45683;-75
2023/03/17 02:12:09;;;;;;;;;12.33;12.33;;;;;15.23;75.54;100263.19;5079041;27;45365;-75
2023/03/17 02:14:35;;;;;;;;;10.67;10.67;;;;;15.20;76.22;100242.25;5078564;27;46238;-76
2023/03/17 02:17:00;;;;;;;;;13.33;13.00;;;;;15.25;76.00;100253.09;5077770;28;45273;-75
2023/03/17 02:19:26;;;;;;;;;12.00;12.00;;;;;15.26;75.47;100241.34;5079502;27;45233;-76
2023/03/17 02:21:59;;;;;;;;;14.33;13.33;;;;;15.33;75.88;100257.38;5078562;27;54187;-74
2023/03/17 02:24:30;;;;;;;;;10.67;10.67;;;;;15.35;75.31;100271.34;5078886;27;46509;-75
2023/03/17 02:27:02;;;;;;;;;15.33;13.33;;;;;15.34;75.77;100264.34;5079059;27;45484;-75
2023/03/17 02:29:27;;;;;;;;;13.33;12.67;;;;;15.39;75.49;100256.50;5076733;28;45364;-75
2023/03/17 02:31:53;;;;;;;;;12.33;11.33;;;;;15.44;75.81;100247.81;5058537;28;46507;-75
2023/03/17 02:34:18;;;;;;;;;16.33;12.00;;;;;15.39;76.21;100240.44;5073245;28;46075;-75
2023/03/17 02:36:45;;;;;;;;;10.33;10.33;;;;;15.39;76.13;100245.78;5078979;28;45359;-75
2023/03/17 02:39:11;;;;;;;;;14.00;14.00;;;;;15.44;76.35;100258.53;5078931;27;45411;-75
2023/03/17 02:41:37;;;;;;;;;11.67;11.67;;;;;15.44;76.83;100251.31;5077436;28;45394;-76
2023/03/17 02:44:02;;;;;;;;;13.33;13.33;;;;;15.52;76.68;100250.22;5078037;27;45438;-76
2023/03/17 02:46:27;;;;;;;;;11.33;11.33;;;;;15.47;75.83;100245.50;5079066;28;45406;-76
2023/03/17 02:48:54;;;;;;;;;14.00;14.00;;;;;15.50;76.67;100255.78;5078517;28;47228;-74
2023/03/17 02:51:19;;;;;;;;;8.67;8.67;;;;;15.48;76.72;100241.78;5078855;27;45303;-75
2023/03/17 02:53:45;;;;;;;;;7.33;7.33;;;;;15.56;76.79;100254.09;5074284;28;48089;-75
2023/03/17 02:56:10;;;;;;;;;10.00;10.00;;;;;15.52;76.94;100256.41;5078817;28;45335;-75
2023/03/17 02:58:36;;;;;;;;;11.33;10.33;;;;;15.55;77.09;100265.00;5078748;28;45428;-75
2023/03/17 03:01:02;;;;;;;;;10.00;10.00;;;;;15.58;76.23;100262.72;5078618;28;45204;-75
2023/03/17 03:03:28;;;;;;;;;11.00;10.00;;;;;15.52;77.00;100252.88;5078187;27;45458;-76
2023/03/17 03:05:53;;;;;;;;;13.67;13.00;;;;;15.50;77.46;100246.91;5078554;27;46525;-76
2023/03/17 03:08:18;;;;;;;;;12.33;12.33;;;;;15.56;78.38;100248.72;5077290;28;45428;-75
2023/03/17 03:10:44;;;;;;;;;12.67;12.00;;;;;15.59;77.52;100244.81;5078821;28;45649;-75
2023/03/17 03:13:10;;;;;;;;;15.00;10.00;;;;;15.65;78.01;100238.56;5078310;28;45960;-75
2023/03/17 03:15:36;;;;;;;;;12.67;11.33;;;;;15.62;78.09;100229.09;5078379;27;45585;-75
2023/03/17 03:18:01;;;;;;;;;13.33;10.67;;;;;15.61;77.86;100215.94;5077322;28;45403;-75
2023/03/17 03:20:27;;;;;;;;;11.00;10.33;;;;;15.67;77.50;100228.44;5073788;27;45914;-76
2023/03/17 03:22:52;;;;;;;;;16.00;11.67;;;;;15.71;77.74;100216.25;5071226;28;46476;-76
2023/03/17 03:25:18;;;;;;;;;10.33;10.33;;;;;15.69;78.60;100222.88;5091054;27;45334;-76
2023/03/17 03:27:43;;;;;;;;;12.00;10.00;;;;;15.69;78.94;100212.97;5082039;27;45319;-75
2023/03/17 03:30:09;;;;;;;;;10.33;10.00;;;;;15.73;78.81;100214.16;5081192;27;45672;-75
2023/03/17 03:32:34;;;;;;;;;11.00;11.00;;;;;15.74;78.34;100207.75;5081611;28;45528;-75
2023/03/17 03:35:00;;;;;;;;;12.00;11.67;;;;;15.72;79.14;100211.72;5080307;28;46080;-76
2023/03/17 03:37:25;;;;;;;;;11.00;11.00;;;;;15.75;78.22;100216.63;5081888;28;45336;-75
2023/03/17 03:39:51;;;;;;;;;12.33;10.33;;;;;15.78;78.39;100221.56;5079855;28;45990;-75
2023/03/17 03:42:16;;;;;;;;;11.00;10.00;;;;;15.77;78.56;100225.25;5080182;28;46786;-75
2023/03/17 03:44:42;;;;;;;;;9.33;9.33;;;;;15.84;78.92;100226.03;5080751;27;45251;-76
2023/03/17 03:47:07;;;;;;;;;10.33;10.33;;;;;15.84;78.51;100231.38;5081364;28;51553;-75
2023/03/17 03:49:33;;;;;;;;;13.67;9.33;;;;;15.78;78.66;100227.72;5081026;27;45571;-76
2023/03/17 03:51:58;;;;;;;;;12.00;12.00;;;;;15.81;78.93;100231.81;5081225;27;45448;-75
2023/03/17 03:54:23;;;;;;;;;9.33;9.00;;;;;15.83;79.49;100243.13;5081499;27;45799;-75
2023/03/17 03:56:49;;;;;;;;;11.00;9.33;;;;;15.85;79.32;100242.91;5081664;27;45327;-75
2023/03/17 03:59:15;;;;;;;;;9.67;9.33;;;;;15.76;77.86;100235.16;5080949;28;45333;-76
2023/03/17 04:01:40;;;;;;;;;9.00;9.00;;;;;15.83;78.84;100251.16;5081382;28;46223;-76
2023/03/17 04:04:06;;;;;;;;;10.00;10.00;;;;;15.78;78.88;100237.63;5079695;28;45377;-76
2023/03/17 04:06:31;;;;;;;;;5.00;4.33;;;;;15.80;78.70;100245.44;5079665;28;45379;-76
2023/03/17 04:08:56;;;;;;;;;9.00;9.00;;;;;15.80;79.12;100240.09;5079698;28;45972;-76
2023/03/17 04:11:22;;;;;;;;;12.00;11.33;;;;;15.84;78.70;100238.59;5080925;28;45391;-76
2023/03/17 04:13:47;;;;;;;;;10.67;10.67;;;;;15.88;79.08;100239.78;5079800;28;45312;-75
2023/03/17 04:16:12;;;;;;;;;12.33;11.00;;;;;15.88;78.76;100234.41;5079419;28;48534;-75
2023/03/17 04:18:38;;;;;;;;;8.67;8.67;;;;;15.94;79.15;100228.19;5080785;27;45343;-75
2023/03/17 04:21:03;;;;;;;;;8.33;8.33;;;;;16.05;78.78;100247.25;5080821;27;45471;-75
2023/03/17 04:23:30;;;;;;;;;11.33;9.00;;;;;16.05;78.33;100240.06;5080658;28;45307;-76
2023/03/17 04:25:55;;;;;;;;;8.33;8.00;;;;;16.07;78.92;100237.94;5081312;27;45308;-75
2023/03/17 04:28:21;;;;;;;;;9.00;8.00;;;;;16.07;77.99;100229.91;5080365;27;45303;-76
2023/03/17 04:30:47;;;;;;;;;8.00;7.33;;;;;16.16;78.56;100251.88;5079071;28;47079;-76
2023/03/17 04:33:12;;;;;;;;;8.67;8.00;;;;;16.20;78.75;100247.72;5080433;27;45307;-76
2023/03/17 04:35:38;;;;;;;;;8.00;8.00;;;;;16.21;78.12;100245.84;5080727;27;45267;-75
2023/03/17 04:38:03;;;;;;;;;9.67;9.67;;;;;16.14;78.52;100241.38;5077809;28;46164;-75
2023/03/17 04:40:29;;;;;;;;;7.00;6.00;;;;;16.26;78.21;100244.13;5080452;28;47594;-76
2023/03/17 04:42:54;;;;;;;;;9.00;8.33;;;;;16.14;79.06;100224.50;5079599;28;45479;-75
2023/03/17 04:45:19;;;;;;;;;5.67;5.67;;;;;16.18;78.76;100231.03;5080167;28;50502;-75
2023/03/17 04:47:45;;;;;;;;;9.00;9.00;;;;;16.15;78.80;100224.25;5079125;28;45955;-76
2023/03/17 04:50:11;;;;;;;;;7.00;7.00;;;;;16.21;78.73;100232.44;5080492;27;45947;-75
2023/03/17 04:52:36;;;;;;;;;5.33;5.33;;;;;16.28;78.75;100235.84;5078981;28;45412;-74
2023/03/17 04:55:03;;;;;;;;;7.33;6.33;;;;;16.26;78.93;100229.91;5080544;27;45364;-75
2023/03/17 04:57:28;;;;;;;;;6.33;6.00;;;;;16.30;79.08;100236.47;5080199;27;45821;-76
2023/03/17 04:59:53;;;;;;;;;7.33;6.00;;;;;16.27;78.48;100239.59;5080222;27;45390;-76
2023/03/17 05:02:19;;;;;;;;;7.00;7.00;;;;;16.24;77.66;100224.78;5080112;28;45298;-76
2023/03/17 05:04:45;;;;;;;;;5.67;5.67;;;;;16.32;78.38;100241.59;5080235;28;45268;-75
2023/03/17 05:07:11;;;;;;;;;7.67;7.67;;;;;16.28;78.52;100235.84;5078688;28;47140;-76
2023/03/17 05:09:37;;;;;;;;;6.00;6.00;;;;;16.27;78.44;100235.06;5078779;28;48301;-75
2023/03/17 05:12:02;;;;;;;;;6.67;6.67;;;;;16.30;77.30;100228.41;5080068;27;45382;-74
2023/03/17 05:14:28;;;;;;;;;5.00;5.00;;;;;16.30;78.97;100233.78;5080341;27;45309;-75
2023/03/17 05:16:53;;;;;;;;;7.00;7.00;;;;;16.34;79.27;100234.97;5078315;28;46256;-75
2023/03/17 05:19:18;;;;;;;;;7.67;7.00;;;;;16.33;79.19;100244.06;5079840;28;49031;-75
2023/03/17 05:21:44;;;;;;;;;6.33;6.33;;;;;16.34;78.82;100244.88;5078428;28;46099;-76
2023/03/17 05:24:09;;;;;;;;;6.00;6.00;;;;;16.31;77.99;100248.00;5079903;28;45461;-75
2023/03/17 05:26:35;;;;;;;;;7.00;7.00;;;;;16.30;78.61;100241.00;5078575;28;45941;-75
2023/03/17 05:29:00;;;;;;;;;6.00;6.00;;;;;16.29;78.66;100253.59;5079428;28;45479;-75
2023/03/17 05:31:25;;;;;;;;;6.00;6.00;;;;;16.25;78.13;100244.38;5063043;27;45532;-75
2023/03/17 05:33:51;;;;;;;;;4.00;4.00;;;;;16.28;77.46;100244.72;5069701;28;47606;-75
2023/03/17 05:36:17;;;;;;;;;7.00;7.00;;;;;16.28;78.01;100244.72;5079657;28;45346;-75
2023/03/17 05:38:43;;;;;;;;;6.00;6.00;;;;;16.35;77.72;100249.19;5079921;27;46033;-75
2023/03/17 05:41:09;;;;;;;;;6.00;5.00;;;;;16.32;76.95;100239.75;5079442;27;45844;-75
2023/03/17 05:43:35;;;;;;;;;4.67;4.33;;;;;16.37;76.59;100239.88;5078632;28;45350;-75
2023/03/17 05:46:00;;;;;;;;;3.67;3.00;;;;;16.48;76.92;100245.53;5079392;27;45351;-75
2023/03/17 05:48:25;;;;;;;;;5.00;5.00;;;;;16.52;76.50;100239.47;5078873;27;45359;-75
2023/03/17 05:50:51;;;;;;;;;4.33;4.00;;;;;16.55;77.20;100245.47;5078092;28;45283;-75
2023/03/17 05:53:16;;;;;;;;;6.00;4.00;;;;;16.61;76.78;100233.81;5078421;28;45242;-75
2023/03/17 05:55:42;;;;;;;;;7.00;6.00;;;;;16.56;77.03;100225.63;5079497;27;45307;-75
2023/03/17 05:58:08;;;;;;;;;5.00;5.00;;;;;16.51;77.17;100232.50;5079577;28;46188;-75
2023/03/17 06:00:34;;;;;;;;;4.00;4.00;;;;;16.61;76.08;100233.81;5079067;27;45474;-76
2023/03/17 06:03:01;;;;;;;;;4.67;4.67;;;;;16.68;76.94;100239.09;5079400;27;45431;-74
2023/03/17 06:05:26;;;;;;;;;6.33;5.67;;;;;16.64;75.32;100230.69;5078957;27;45448;-74
2023/03/17 06:07:52;;;;;;;;;5.33;4.00;;;;;16.74;75.94;100236.31;5079182;27;45326;-74
2023/03/17 06:10:17;;;;;;;;;3.33;3.33;;;;;16.74;76.36;100236.31;5077490;28;45868;-76
2023/03/17 06:12:43;;;;;;;;;5.00;5.00;;;;;16.76;77.09;100238.78;5070074;27;45347;-74
2023/03/17 06:15:08;;;;;;;;;3.00;3.00;;;;;16.74;76.22;100236.31;5074938;28;45300;-75
2023/03/17 06:17:34;;;;;;;;;6.67;6.33;;;;;16.77;76.07;100243.88;5077927;28;47092;-75
2023/03/17 06:20:00;;;;;;;;;5.00;5.00;;;;;16.75;76.52;100245.19;5077089;27;45217;-75
2023/03/17 06:22:26;;;;;;;;;5.00;5.00;;;;;16.76;76.74;100249.50;5078724;27;45343;-73
2023/03/17 06:24:52;;;;;;;;;4.33;4.00;;;;;16.73;76.41;100245.41;5077812;27;45451;-75
2023/03/17 06:27:18;;;;;;;;;4.00;3.00;;;;;17.11;76.25;100245.31;5078703;28;45349;-74
2023/03/17 06:29:43;;;;;;;;;4.00;4.00;;;;;16.68;75.96;100247.97;5081175;27;45793;-75
2023/03/17 06:32:08;;;;;;;;;6.00;4.33;;;;;16.66;76.19;100247.34;5079787;27;45479;-76
2023/03/17 06:34:34;;;;;;;;;4.67;4.67;;;;;16.71;75.79;100263.59;5073302;28;45969;-74
2023/03/17 06:36:59;;;;;;;;;4.67;3.00;;;;;16.65;76.36;100256.47;5067526;28;47920;-76
2023/03/17 06:39:25;;;;;;;;;5.00;5.00;;;;;16.67;77.05;100262.41;5073275;28;45426;-77
2023/03/17 06:41:51;;;;;;;;;7.00;6.33;;;;;16.72;76.98;100264.41;5077701;28;45460;-75
2023/03/17 06:44:16;;;;;;;;;5.67;5.67;;;;;16.65;75.89;100256.47;5076661;28;45497;-75
2023/03/17 06:46:41;;;;;;;;;4.00;3.00;;;;;16.71;75.70;100255.56;5077952;28;45463;-74
2023/03/17 06:49:07;;;;;;;;;6.00;5.33;;;;;16.75;76.38;100245.19;5077597;28;45349;-76
2023/03/17 06:51:35;;;;;;;;;5.00;4.67;;;;;16.83;75.28;100257.47;5074698;27;45438;-74
2023/03/17 06:54:00;;;;;;;;;4.00;4.00;;;;;16.87;75.18;100247.91;5071724;27;46301;-76
2023/03/17 06:56:26;;;;;;;;;5.00;5.00;;;;;16.91;75.05;100241.03;5065053;28;46019;-75
2023/03/17 06:58:52;;;;;;;;;3.00;3.00;;;;;16.96;75.14;100240.34;5078804;27;45295;-75
2023/03/17 07:01:18;;;;;;;;;5.00;5.00;;;;;17.00;75.67;100238.84;5080130;27;45290;-74
2023/03/17 07:03:44;;;;;;;;;5.00;4.00;;;;;17.13;75.58;100253.97;5081960;27;45192;-75
2023/03/17 07:06:09;;;;;;;;;4.33;4.00;;;;;17.24;74.32;100258.53;5080579;28;46966;-75
2023/03/17 07:08:35;;;;;;;;;5.00;5.00;;;;;17.19;75.11;100255.72;5081908;27;45405;-74
2023/03/17 07:11:02;;;;;;;;;4.67;4.00;;;;;17.32;74.50;100268.13;5082416;28;45470;-74
2023/03/17 07:13:28;;;;;;;;;4.00;4.00;;;;;17.34;73.62;100257.97;5081782;27;45381;-74
2023/03/17 07:15:54;;;;;;;;;3.67;3.67;;;;;17.40;73.39;100254.38;5081602;27;45295;-75
2023/03/17 07:18:19;;;;;;;;;3.33;3.33;;;;;17.54;73.88;100262.22;5067378;28;45698;-74
2023/03/17 07:20:45;;;;;;;;;3.00;3.00;;;;;17.59;72.26;100261.47;5081961;27;45429;-74
2023/03/17 07:23:21;;;;;;;;;4.00;3.67;;;;;17.61;73.23;100257.53;5081935;27;45228;-73
2023/03/17 07:25:47;;;;;;;;;3.00;3.00;;;;;17.72;72.19;100252.38;5081725;27;45370;-74
2023/03/17 07:28:13;;;;;;;;;4.00;4.00;;;;;17.77;72.58;100261.38;5081701;27;45257;-74
2023/03/17 07:30:42;;;;;;;;;4.00;4.00;;;;;17.75;71.36;100252.72;5081572;27;45383;-74
2023/03/17 07:33:08;;;;;;;;;4.00;4.00;;;;;17.88;72.19;100261.59;5081177;27;45415;-75
2023/03/17 07:35:33;;;;;;;;;4.00;4.00;;;;;17.99;72.51;100262.66;5079812;27;48529;-75
2023/03/17 07:37:58;;;;;;;;;4.33;4.00;;;;;18.04;72.20;100268.97;5071701;27;45484;-75
2023/03/17 07:40:25;;;;;;;;;3.00;3.00;;;;;18.12;70.43;100273.19;5081740;27;45278;-74
2023/03/17 07:42:51;;;;;;;;;4.00;2.67;;;;;18.23;71.40;100250.00;5080707;28;45414;-75
2023/03/17 07:45:16;;;;;;;;;4.00;4.00;;;;;18.41;69.65;100261.66;5079823;27;47166;-75
2023/03/17 07:47:41;;;;;;;;;5.00;4.00;;;;;18.48;69.09;100262.34;5081078;28;46531;-75
2023/03/17 07:50:08;;;;;;;;;4.67;4.00;;;;;18.59;68.21;100263.38;5081562;27;45419;-75
2023/03/17 07:52:33;;;;;;;;;5.00;5.00;;;;;18.74;69.45;100267.41;5079955;28;45669;-74
2023/03/17 07:54:59;;;;;;;;;4.00;4.00;;;;;18.88;68.17;100267.91;5081418;28;45385;-75
2023/03/17 07:57:24;;;;;;;;;3.67;3.00;;;;;18.95;67.14;100273.16;5081226;28;45359;-76
2023/03/17 07:59:50;;;;;;;;;5.67;4.33;;;;;19.08;67.24;100285.53;5079581;28;51422;-75
2023/03/17 08:02:16;;;;;;;;;2.67;2.67;;;;;19.15;66.22;100273.53;5080863;27;45460;-75
2023/03/17 08:04:43;;;;;;;;;3.00;3.00;;;;;19.35;65.01;100288.41;5081147;27;45328;-76
2023/03/17 08:07:09;;;;;;;;;2.00;2.00;;;;;19.42;62.92;100288.25;5080970;27;45330;-76
2023/03/17 08:09:35;;;;;;;;;3.00;3.00;;;;;19.50;62.80;100285.16;5081611;28;45308;-75
2023/03/17 08:12:00;;;;;;;;;3.67;3.67;;;;;19.64;63.57;100274.03;5080238;28;45661;-75
2023/03/17 08:14:26;;;;;;;;;1.67;1.33;;;;;19.83;59.93;100268.34;5080503;28;55637;-76
2023/03/17 08:16:52;;;;;;;;;1.00;1.00;;;;;19.98;60.11;100268.59;5080606;27;45290;-75
2023/03/17 08:19:18;;;;;;;;;3.00;3.00;;;;;20.06;56.70;100256.59;5080364;28;45286;-75
2023/03/17 08:21:43;;;;;;;;;4.33;3.33;;;;;20.22;59.18;100271.06;5069975;28;53796;-75
2023/03/17 08:24:08;;;;;;;;;1.33;1.33;;;;;20.39;57.49;100273.72;5067127;28;59472;-77
2023/03/17 08:26:34;;;;;;;;;1.33;1.33;;;;;20.45;56.83;100271.91;5081034;27;45414;-76
2023/03/17 08:29:00;;;;;;;;;2.00;2.00;;;;;20.53;55.10;100260.63;5080943;27;45321;-76
2023/03/17 08:31:25;;;;;;;;;2.00;2.00;;;;;20.60;55.15;100267.72;5066927;27;45304;-76
2023/03/17 08:33:55;;;;;;;;;3.00;3.00;;;;;20.73;54.15;100278.13;5080891;27;45569;-76
2023/03/17 08:36:20;;;;;;;;;2.00;2.00;;;;;20.83;54.14;100266.59;5080527;27;45444;-76
2023/03/17 08:38:47;;;;;;;;;3.00;3.00;;;;;20.92;54.29;100275.13;5080938;27;45284;-76
2023/03/17 08:41:17;;;;;;;;;4.00;3.67;;;;;21.04;52.98;100274.97;5080291;28;45276;-76
2023/03/17 08:43:44;;;;;;;;;3.00;3.00;;;;;21.17;53.30;100271.00;5079052;28;47621;-76
2023/03/17 08:46:21;;;;;;;;;3.33;3.33;;;;;21.25;53.11;100262.41;5080612;27;45260;-75
2023/03/17 08:48:49;;;;;;;;;3.00;3.00;;;;;21.30;51.75;100270.59;5080790;27;45228;-75
2023/03/17 08:51:15;;;;;;;;;3.00;3.00;;;;;21.38;51.70;100269.31;5079708;28;45432;-75
2023/03/17 08:53:42;;;;;;;;;3.67;3.67;;;;;21.48;50.98;100270.44;5079154;27;45348;-75
2023/03/17 08:56:07;;;;;;;;;4.00;4.00;;;;;21.53;50.25;100263.19;5075889;28;45283;-76
2023/03/17 08:58:35;;;;;;;;;3.00;3.00;;;;;21.56;49.89;100262.69;5071782;28;45323;-75
2023/03/17 09:01:02;;;;;;;;;4.00;3.67;;;;;21.57;49.68;100252.66;5079880;27;45477;-75
2023/03/17 09:03:28;;;;;;;;;3.00;3.00;;;;;21.63;50.36;100259.72;5079151;27;45337;-77
2023/03/17 09:05:54;;;;;;;;;3.00;3.00;;;;;21.69;49.85;100257.88;5079300;27;45560;-75
2023/03/17 09:08:20;;;;;;;;;2.00;2.00;;;;;21.71;49.91;100247.63;5080109;28;45378;-75
2023/03/17 09:10:46;;;;;;;;;2.00;2.00;;;;;21.77;49.96;100259.31;5080320;27;45324;-76
2023/03/17 09:13:12;;;;;;;;;2.00;2.00;;;;;21.77;48.92;100254.72;5079511;27;45436;-76
2023/03/17 09:15:37;;;;;;;;;1.00;1.00;;;;;21.74;48.49;100254.38;5081965;27;45330;-76
2023/03/17 09:18:04;;;;;;;;;3.00;2.00;;;;;21.80;48.58;100248.78;5079850;28;45479;-75
2023/03/17 09:20:30;;;;;;;;;2.67;2.67;;;;;21.82;48.57;100253.94;5080401;27;45280;-75
2023/03/17 09:22:56;;;;;;;;;2.00;2.00;;;;;21.83;48.56;100260.97;5067643;28;46171;-75
2023/03/17 09:25:22;;;;;;;;;2.00;2.00;;;;;21.86;48.53;100263.16;5079657;28;45192;-76
2023/03/17 09:27:47;;;;;;;;;4.00;4.00;;;;;21.88;46.38;100266.38;5080134;27;45472;-76
2023/03/17 09:30:13;;;;;;;;;4.00;4.00;;;;;21.79;47.25;100270.69;5079600;27;45354;-76
2023/03/17 09:32:39;;;;;;;;;3.33;3.33;;;;;21.76;47.88;100258.47;5078850;27;46022;-76
2023/03/17 09:35:05;;;;;;;;;5.67;3.33;;;;;21.86;47.31;100262.31;5079850;27;45449;-76
2023/03/17 09:37:31;;;;;;;;;3.00;3.00;;;;;21.79;46.41;100244.44;5079755;28;45542;-76
2023/03/17 09:39:56;;;;;;;;;1.33;1.33;;;;;21.89;46.88;100261.81;5078332;28;46047;-76
2023/03/17 09:42:43;;;;;;;;;3.00;3.00;;;;;21.84;48.36;100253.69;5078256;28;47146;-76
2023/03/17 09:45:27;;;;;;;;;3.00;3.00;;;;;21.68;46.63;100253.53;5079474;28;45476;-76
2023/03/17 09:48:14;;;;;;;;;3.00;3.00;;;;;21.71;47.16;100261.13;5073210;28;46542;-75
2023/03/17 09:51:07;;;;;;;;;2.33;2.33;;;;;21.74;47.43;100246.28;5074109;28;45530;-75
2023/03/17 09:53:50;;;;;;;;;2.67;2.67;;;;;21.85;47.68;100252.59;5079462;27;45548;-75
2023/03/17 09:56:18;;;;;;;;;3.00;3.00;;;;;21.86;47.64;100235.28;5079517;27;45390;-75
2023/03/17 09:59:06;;;;;;;;;2.67;2.67;;;;;21.99;48.09;100252.91;5079409;27;45259;-76
2023/03/17 10:01:31;;;;;;;;;4.67;4.33;;;;;22.04;46.77;100245.66;5079600;27;45323;-76
2023/03/17 10:03:57;;;;;;;;;1.00;1.00;;;;;22.12;46.90;100252.44;5079166;27;45385;-76
2023/03/17 10:06:32;;;;;;;;;3.00;2.33;;;;;22.25;46.95;100247.63;5079462;27;45329;-75
2023/03/17 10:09:15;;;;;;;;;2.00;2.00;;;;;22.40;46.17;100227.91;5079220;27;45295;-76
2023/03/17 10:11:46;;;;;;;;;4.33;4.33;;;;;22.51;47.19;100224.13;5079148;27;45313;-75
2023/03/17 10:14:32;;;;;;;;;2.00;2.00;;;;;22.64;46.58;100241.81;5079232;27;47137;-76
2023/03/17 10:17:08;;;;;;;;;3.33;2.00;;;;;22.78;45.66;100242.09;5079149;27;45255;-76
2023/03/17 10:20:00;;;;;;;;;3.67;3.67;;;;;22.87;45.43;100253.22;5079208;27;45497;-76
2023/03/17 10:22:47;;;;;;;;;3.33;3.33;;;;;23.07;45.53;100251.59;5079110;27;45432;-76
2023/03/17 10:25:27;;;;;;;;;2.00;2.00;;;;;23.26;45.67;100251.06;5078854;27;45347;-76
2023/03/17 10:28:01;;;;;;;;;1.00;1.00;;;;;23.36;45.58;100255.66;5078668;27;45279;-76
2023/03/17 10:30:29;;;;;;;;;3.00;3.00;;;;;23.41;44.95;100259.19;5069669;27;45273;-76
2023/03/17 10:32:59;;;;;;;;;0.33;0.33;;;;;23.59;44.51;100265.16;5075042;28;45353;-76
2023/03/17 10:35:24;;;;;;;;;2.00;2.00;;;;;23.68;44.26;100258.06;5079010;28;47339;-76
2023/03/17 10:37:49;;;;;;;;;0.33;0.00;;;;;23.86;44.21;100247.75;5080889;27;45266;-77
2023/03/17 10:40:24;;;;;;;;;2.00;2.00;;;;;23.97;43.58;100251.22;5081320;28;50913;-75
2023/03/17 10:43:15;;;;;;;;;1.67;1.00;;;;;24.18;43.27;100270.97;5082110;27;45417;-75
2023/03/17 10:45:54;;;;;;;;;1.67;1.67;;;;;24.28;42.77;100263.88;5082389;27;45528;-75
2023/03/17 10:48:19;;;;;;;;;3.67;1.00;;;;;24.39;42.53;100264.66;5082798;27;45220;-75
2023/03/17 10:50:45;;;;;;;;;0.00;0.00;;;;;24.50;41.82;100255.34;5080221;28;45361;-76
2023/03/17 10:53:26;;;;;;;;;0.75;0.75;;;;;24.68;42.38;100258.50;5075426;27;45468;-76
2023/03/17 10:55:55;;;;;;;;;2.33;2.33;;;;;24.71;42.29;100245.19;5082490;28;46024;-76
2023/03/17 10:58:33;;;;;;;;;3.00;3.00;;;;;24.75;41.56;100241.91;5082230;27;45282;-77
2023/03/17 11:01:04;;;;;;;;;3.00;2.67;;;;;24.71;40.78;100241.66;5082226;28;45339;-78
2023/03/17 11:03:34;;;;;;;;;3.00;3.00;;;;;24.73;40.65;100252.22;5080987;27;45220;-77
2023/03/17 11:06:08;;;;;;;;;4.00;4.00;;;;;24.73;40.57;100252.22;5077065;28;48405;-77
2023/03/17 11:08:39;;;;;;;;;4.67;4.00;;;;;24.74;39.97;100248.41;5082477;27;45225;-77
2023/03/17 11:11:20;;;;;;;;;4.00;3.00;;;;;24.73;40.57;100242.19;5080934;28;45407;-77
2023/03/17 11:13:46;;;;;;;;;4.00;3.33;;;;;24.75;39.98;100242.69;5081966;27;45244;-76
2023/03/17 11:16:22;;;;;;;;;3.00;3.00;;;;;24.77;40.24;100237.81;5080184;28;47983;-76
2023/03/17 11:18:52;;;;;;;;;3.67;3.00;;;;;24.82;40.14;100240.50;5082205;28;45353;-77
2023/03/17 11:21:30;;;;;;;;;3.00;3.00;;;;;24.89;40.20;100239.38;5082115;28;45326;-78